Time;durP1;ratioP1;P1;durP2;ratioP2;P2;SDS_P1;SDS_P2;PMS_P1;PMS_P2;Temp;Humidity;BMP_temperature;BMP_pressure;BME280_temperature;BME280_humidity;BME280_pressure;Samples;Min_cycle;Max_cycle;Signal;HPM_P1;HPM_P2
2022/04/08 00:01:26;;;;;;;4.35;1.00;;;;;;;;;;5047114;28;20613;-50
2022/04/08 00:03:52;;;;;;;5.85;1.38;;;;;;;;;;5041994;28;20022;-52
2022/04/08 00:06:19;;;;;;;3.00;1.00;;;;;;;;;;5038192;28;20499;-52
2022/04/08 00:08:46;;;;;;;5.57;1.15;;;;;;;;;;5036427;28;20017;-50
2022/04/08 00:11:12;;;;;;;6.80;1.60;;;;;;;;;;5050512;28;20017;-53
2022/04/08 00:13:38;;;;;;;6.88;1.35;;;;;;;;;;5050475;28;20120;-52
2022/04/08 00:16:07;;;;;;;8.82;1.60;;;;;;;;;;5050192;28;20028;-53
2022/04/08 00:18:33;;;;;;;7.70;1.42;;;;;;;;;;5050526;28;20036;-54
2022/04/08 00:20:59;;;;;;;7.00;1.58;;;;;;;;;;5043935;28;20116;-50
2022/04/08 00:23:25;;;;;;;6.28;1.65;;;;;;;;;;5050274;28;20036;-52
2022/04/08 00:25:52;;;;;;;4.63;1.13;;;;;;;;;;5049697;28;20517;-52
2022/04/08 00:28:18;;;;;;;4.07;1.17;;;;;;;;;;5050145;28;20099;-53
2022/04/08 00:30:44;;;;;;;4.55;1.13;;;;;;;;;;5050469;28;20132;-51
2022/04/08 00:33:10;;;;;;;5.20;1.38;;;;;;;;;;5049596;28;20045;-51
2022/04/08 00:35:36;;;;;;;5.15;1.58;;;;;;;;;;5047611;28;20059;-51
2022/04/08 00:38:02;;;;;;;6.80;1.25;;;;;;;;;;5050033;28;20551;-53
2022/04/08 00:40:28;;;;;;;3.78;1.52;;;;;;;;;;5049834;28;20075;-52
2022/04/08 00:42:54;;;;;;;6.13;1.08;;;;;;;;;;5050625;28;20516;-51
2022/04/08 00:45:20;;;;;;;5.32;0.98;;;;;;;;;;5050067;28;20021;-50
2022/04/08 00:47:48;;;;;;;4.28;1.10;;;;;;;;;;5050540;28;20025;-50
2022/04/08 00:50:14;;;;;;;5.68;1.20;;;;;;;;;;5049479;28;20032;-48
2022/04/08 00:52:42;;;;;;;4.80;1.00;;;;;;;;;;5050204;28;20045;-51
2022/04/08 00:55:08;;;;;;;3.97;1.08;;;;;;;;;;5049933;28;20078;-51
2022/04/08 00:57:35;;;;;;;5.13;1.10;;;;;;;;;;5050299;28;20119;-49
2022/04/08 01:00:09;;;;;;;6.30;1.30;;;;;;;;;;5050051;28;20086;-54
2022/04/08 01:02:35;;;;;;;2.80;0.95;;;;;;;;;;5048601;28;20021;-53
2022/04/08 01:05:02;;;;;;;6.28;1.08;;;;;;;;;;5037934;28;20104;-50
2022/04/08 01:07:28;;;;;;;3.88;1.20;;;;;;;;;;5045949;28;20048;-52
2022/04/08 01:09:55;;;;;;;5.63;1.05;;;;;;;;;;5049920;28;20107;-51
2022/04/08 01:12:21;;;;;;;3.90;1.15;;;;;;;;;;5049885;28;20057;-52
2022/04/08 01:14:47;;;;;;;4.97;1.30;;;;;;;;;;5050153;28;20525;-52
2022/04/08 01:17:13;;;;;;;6.30;1.27;;;;;;;;;;5049739;28;20090;-53
2022/04/08 01:19:39;;;;;;;4.10;1.30;;;;;;;;;;5050045;28;20095;-50
2022/04/08 01:22:05;;;;;;;6.00;1.45;;;;;;;;;;5049213;28;20033;-50
2022/04/08 01:24:33;;;;;;;2.90;0.68;;;;;;;;;;5047222;28;20021;-50
2022/04/08 01:27:02;;;;;;;4.65;1.42;;;;;;;;;;5046891;28;20032;-52
2022/04/08 01:29:28;;;;;;;2.85;0.88;;;;;;;;;;5044411;28;20049;-52
2022/04/08 01:31:54;;;;;;;4.60;1.08;;;;;;;;;;5049075;28;20013;-51
2022/04/08 01:34:20;;;;;;;3.92;0.85;;;;;;;;;;5049758;28;20041;-51
2022/04/08 01:36:46;;;;;;;4.10;0.93;;;;;;;;;;5042709;28;20021;-50
2022/04/08 01:39:12;;;;;;;3.90;0.88;;;;;;;;;;5049648;28;20032;-51
2022/04/08 01:41:38;;;;;;;3.63;1.10;;;;;;;;;;5049444;28;20056;-51
2022/04/08 01:44:05;;;;;;;3.63;0.90;;;;;;;;;;5049500;28;20057;-52
2022/04/08 01:46:31;;;;;;;4.95;1.13;;;;;;;;;;5049011;28;20040;-51
2022/04/08 01:48:57;;;;;;;3.42;0.85;;;;;;;;;;5048551;28;20021;-54
2022/04/08 01:51:24;;;;;;;4.60;1.50;;;;;;;;;;5037770;28;20041;-54
2022/04/08 01:53:50;;;;;;;4.55;0.98;;;;;;;;;;5046290;28;20121;-49
2022/04/08 01:56:16;;;;;;;6.28;1.00;;;;;;;;;;5049602;28;20025;-53
2022/04/08 01:58:42;;;;;;;5.35;1.17;;;;;;;;;;5049234;28;20454;-53
2022/04/08 02:01:08;;;;;;;4.03;1.15;;;;;;;;;;5048928;28;20107;-53
2022/04/08 02:03:34;;;;;;;5.32;1.30;;;;;;;;;;5047464;28;20509;-53
2022/04/08 02:06:00;;;;;;;5.93;1.33;;;;;;;;;;5042722;28;20598;-53
2022/04/08 02:08:26;;;;;;;5.13;1.30;;;;;;;;;;5040565;28;20415;-54
2022/04/08 02:10:55;;;;;;;3.50;1.15;;;;;;;;;;5049200;28;20079;-53
2022/04/08 02:13:21;;;;;;;5.63;1.20;;;;;;;;;;5048585;28;20158;-53
2022/04/08 02:15:47;;;;;;;6.07;1.30;;;;;;;;;;5048981;28;20032;-51
2022/04/08 02:18:14;;;;;;;6.80;1.13;;;;;;;;;;5048970;28;20122;-53
2022/04/08 02:20:41;;;;;;;4.63;1.08;;;;;;;;;;5048100;28;20025;-54
2022/04/08 02:23:07;;;;;;;6.18;1.10;;;;;;;;;;5048694;28;20021;-52
2022/04/08 02:25:34;;;;;;;5.28;1.05;;;;;;;;;;5048578;28;20468;-52
2022/04/08 02:28:00;;;;;;;4.40;0.90;;;;;;;;;;5048636;28;20136;-53
2022/04/08 02:30:26;;;;;;;4.72;1.88;;;;;;;;;;5048446;28;20139;-53
2022/04/08 02:32:52;;;;;;;4.97;1.50;;;;;;;;;;5048603;28;20456;-52
2022/04/08 02:35:20;;;;;;;2.90;0.88;;;;;;;;;;5047879;28;20677;-52
2022/04/08 02:37:47;;;;;;;5.60;1.17;;;;;;;;;;5048760;28;20028;-54
2022/04/08 02:40:13;;;;;;;5.13;1.40;;;;;;;;;;5048505;28;20029;-48
2022/04/08 02:42:39;;;;;;;4.80;1.00;;;;;;;;;;5048362;28;20056;-54
2022/04/08 02:45:05;;;;;;;7.03;1.58;;;;;;;;;;5048907;28;20099;-53
2022/04/08 02:47:31;;;;;;;4.78;1.25;;;;;;;;;;5036006;28;20112;-54
2022/04/08 02:49:57;;;;;;;5.18;1.10;;;;;;;;;;5047080;28;20508;-53
2022/04/08 02:52:23;;;;;;;5.18;1.60;;;;;;;;;;5048643;28;20198;-54
2022/04/08 02:54:49;;;;;;;4.68;1.35;;;;;;;;;;5048636;28;20021;-53
2022/04/08 02:57:15;;;;;;;6.18;1.02;;;;;;;;;;5044694;28;20519;-52
2022/04/08 02:59:41;;;;;;;3.33;0.90;;;;;;;;;;5046498;28;20032;-51
2022/04/08 03:02:07;;;;;;;4.45;1.35;;;;;;;;;;5044982;28;20547;-54
2022/04/08 03:04:33;;;;;;;3.42;1.00;;;;;;;;;;5042119;28;20037;-53
2022/04/08 03:07:01;;;;;;;3.53;0.77;;;;;;;;;;5041490;28;20104;-48
2022/04/08 03:09:27;;;;;;;6.70;1.10;;;;;;;;;;5050720;28;20033;-51
2022/04/08 03:11:53;;;;;;;2.00;0.80;;;;;;;;;;5041135;28;20407;-53
2022/04/08 03:14:19;;;;;;;6.18;1.17;;;;;;;;;;5044142;28;20518;-51
2022/04/08 03:16:45;;;;;;;4.30;1.20;;;;;;;;;;5049886;28;20033;-50
2022/04/08 03:19:11;;;;;;;8.85;1.30;;;;;;;;;;5041167;28;20134;-52
2022/04/08 03:21:37;;;;;;;3.63;1.25;;;;;;;;;;5047366;28;20036;-54
2022/04/08 03:24:04;;;;;;;3.47;0.80;;;;;;;;;;5052620;28;20025;-53
2022/04/08 03:26:30;;;;;;;5.45;1.23;;;;;;;;;;5051846;28;20021;-55
2022/04/08 03:28:56;;;;;;;8.23;1.67;;;;;;;;;;5051903;28;20132;-54
2022/04/08 03:31:22;;;;;;;3.35;0.80;;;;;;;;;;5046522;28;20197;-53
2022/04/08 03:33:48;;;;;;;4.85;1.10;;;;;;;;;;5047337;28;20490;-55
2022/04/08 03:36:14;;;;;;;4.22;0.95;;;;;;;;;;5049598;28;20037;-52
2022/04/08 03:38:40;;;;;;;7.53;1.08;;;;;;;;;;5051340;28;20021;-53
2022/04/08 03:41:06;;;;;;;5.43;1.40;;;;;;;;;;5050406;28;20551;-53
2022/04/08 03:43:34;;;;;;;6.47;1.50;;;;;;;;;;5043129;28;20812;-52
2022/04/08 03:46:00;;;;;;;5.35;1.33;;;;;;;;;;5037330;28;20025;-52
2022/04/08 03:48:26;;;;;;;4.78;1.10;;;;;;;;;;5051714;28;20025;-51
2022/04/08 03:50:52;;;;;;;5.43;1.02;;;;;;;;;;5041674;28;20489;-51
2022/04/08 03:53:19;;;;;;;5.65;1.25;;;;;;;;;;5036213;28;20120;-53
2022/04/08 03:55:45;;;;;;;4.75;1.02;;;;;;;;;;5034809;28;20476;-53
2022/04/08 03:58:12;;;;;;;4.50;1.60;;;;;;;;;;5051787;28;20183;-50
2022/04/08 04:00:41;;;;;;;4.95;1.15;;;;;;;;;;5051822;28;20025;-48
2022/04/08 04:03:07;;;;;;;5.05;1.00;;;;;;;;;;5050023;28;20599;-52
2022/04/08 04:05:36;;;;;;;5.85;1.15;;;;;;;;;;5041148;28;20044;-53
2022/04/08 04:08:02;;;;;;;5.82;1.05;;;;;;;;;;5048160;28;20128;-54
2022/04/08 04:10:28;;;;;;;4.40;1.00;;;;;;;;;;5049876;28;20471;-53
2022/04/08 04:12:54;;;;;;;3.92;1.00;;;;;;;;;;5049719;28;20119;-53
2022/04/08 04:15:21;;;;;;;6.80;1.00;;;;;;;;;;5051206;28;20065;-51
2022/04/08 04:17:48;;;;;;;5.90;1.30;;;;;;;;;;5051426;28;20035;-53
2022/04/08 04:20:14;;;;;;;2.95;0.80;;;;;;;;;;5043502;28;20037;-49
2022/04/08 04:22:40;;;;;;;4.70;1.00;;;;;;;;;;5047697;28;20035;-53
2022/04/08 04:25:06;;;;;;;3.58;0.75;;;;;;;;;;5051379;28;20412;-48
2022/04/08 04:27:32;;;;;;;6.57;1.30;;;;;;;;;;5050867;28;20024;-47
2022/04/08 04:29:58;;;;;;;4.28;1.10;;;;;;;;;;5045123;28;20049;-53
2022/04/08 04:32:24;;;;;;;3.55;1.00;;;;;;;;;;5036165;28;20024;-52
2022/04/08 04:34:50;;;;;;;3.65;0.90;;;;;;;;;;5048869;28;20546;-50
2022/04/08 04:37:16;;;;;;;3.40;0.90;;;;;;;;;;5049998;28;20029;-51
2022/04/08 04:39:42;;;;;;;5.97;1.27;;;;;;;;;;5049935;28;20039;-50
2022/04/08 04:42:08;;;;;;;4.90;1.17;;;;;;;;;;5046146;28;20044;-52
2022/04/08 04:44:34;;;;;;;5.57;1.55;;;;;;;;;;5048755;28;20125;-53
2022/04/08 04:47:01;;;;;;;7.13;1.10;;;;;;;;;;5049964;28;20036;-52
2022/04/08 04:49:27;;;;;;;7.38;1.38;;;;;;;;;;5042504;28;20574;-52
2022/04/08 04:51:53;;;;;;;5.18;1.00;;;;;;;;;;5050057;28;20116;-54
2022/04/08 04:54:20;;;;;;;11.43;1.80;;;;;;;;;;5049225;28;20247;-50
2022/04/08 04:56:46;;;;;;;8.45;2.17;;;;;;;;;;5039806;28;20112;-51
2022/04/08 04:59:12;;;;;;;5.70;1.20;;;;;;;;;;5040875;28;20021;-49
2022/04/08 05:01:38;;;;;;;9.15;3.00;;;;;;;;;;5039426;28;20027;-50
2022/04/08 05:04:04;;;;;;;10.25;2.70;;;;;;;;;;5041821;28;20822;-52
2022/04/08 05:06:34;;;;;;;12.43;3.50;;;;;;;;;;5037994;28;20108;-51
2022/04/08 05:09:00;;;;;;;18.20;6.32;;;;;;;;;;5043122;28;20837;-52
2022/04/08 05:11:26;;;;;;;9.85;3.35;;;;;;;;;;5041689;28;20028;-51
2022/04/08 05:13:52;;;;;;;20.88;4.07;;;;;;;;;;5045051;28;20162;-53
2022/04/08 05:16:18;;;;;;;14.45;3.33;;;;;;;;;;5041729;28;20040;-53
2022/04/08 05:18:45;;;;;;;10.27;2.75;;;;;;;;;;5040128;28;20047;-52
2022/04/08 05:21:11;;;;;;;11.30;2.78;;;;;;;;;;5040258;28;20508;-51
2022/04/08 05:23:37;;;;;;;14.05;3.05;;;;;;;;;;5043240;28;20197;-52
2022/04/08 05:26:03;;;;;;;15.35;3.45;;;;;;;;;;5041818;28;20819;-54
2022/04/08 05:28:29;;;;;;;14.85;4.00;;;;;;;;;;5038464;28;20119;-53
2022/04/08 05:30:55;;;;;;;12.70;3.20;;;;;;;;;;5041511;28;20048;-53
2022/04/08 05:33:21;;;;;;;12.40;3.63;;;;;;;;;;5040365;28;20053;-52
2022/04/08 05:35:47;;;;;;;10.98;2.80;;;;;;;;;;5035603;28;20386;-52
2022/04/08 05:38:13;;;;;;;15.38;2.80;;;;;;;;;;5032462;28;20036;-51
2022/04/08 05:40:40;;;;;;;12.45;3.30;;;;;;;;;;5039906;28;20029;-53
2022/04/08 05:43:06;;;;;;;14.23;3.53;;;;;;;;;;5043578;28;20112;-52
2022/04/08 05:45:32;;;;;;;13.25;3.15;;;;;;;;;;5038636;28;20119;-53
2022/04/08 05:48:02;;;;;;;11.55;2.47;;;;;;;;;;5046872;28;20037;-54
2022/04/08 05:50:28;;;;;;;11.07;3.85;;;;;;;;;;5048473;28;20021;-52
2022/04/08 05:52:54;;;;;;;10.18;2.92;;;;;;;;;;5048734;28;20112;-54
2022/04/08 05:55:20;;;;;;;12.90;2.53;;;;;;;;;;5048158;28;20107;-50
2022/04/08 05:57:47;;;;;;;13.45;2.55;;;;;;;;;;5048282;28;20031;-55
2022/04/08 06:00:16;;;;;;;10.02;2.72;;;;;;;;;;5040205;28;20135;-50
2022/04/08 06:02:43;;;;;;;13.80;2.70;;;;;;;;;;5047515;28;20057;-53
2022/04/08 06:05:10;;;;;;;10.75;2.45;;;;;;;;;;5048083;28;20028;-51
2022/04/08 06:07:36;;;;;;;16.73;3.55;;;;;;;;;;5046947;28;20025;-52
2022/04/08 06:10:03;;;;;;;11.55;2.05;;;;;;;;;;5037583;28;20159;-55
2022/04/08 06:12:29;;;;;;;10.75;2.13;;;;;;;;;;5043608;28;20025;-52
2022/04/08 06:14:55;;;;;;;13.35;2.50;;;;;;;;;;5036084;28;20167;-50
2022/04/08 06:17:21;;;;;;;14.80;2.35;;;;;;;;;;5038941;28;20424;-50
2022/04/08 06:19:49;;;;;;;14.75;2.83;;;;;;;;;;5038982;28;20025;-51
2022/04/08 06:22:15;;;;;;;20.90;2.97;;;;;;;;;;5041076;28;20154;-51
2022/04/08 06:24:41;;;;;;;11.40;2.25;;;;;;;;;;5040473;28;20105;-55
2022/04/08 06:27:07;;;;;;;12.50;2.58;;;;;;;;;;5042461;28;20029;-48
2022/04/08 06:29:33;;;;;;;15.80;2.15;;;;;;;;;;5036848;28;20107;-51
2022/04/08 06:31:59;;;;;;;10.15;2.65;;;;;;;;;;5040526;28;20388;-50
2022/04/08 06:34:26;;;;;;;15.90;2.90;;;;;;;;;;5043394;28;20132;-53
2022/04/08 06:36:52;;;;;;;13.85;2.40;;;;;;;;;;5046560;28;20104;-49
2022/04/08 06:39:18;;;;;;;13.23;2.33;;;;;;;;;;5047759;28;20017;-50
2022/04/08 06:41:44;;;;;;;16.60;3.03;;;;;;;;;;5040826;28;20047;-54
2022/04/08 06:44:10;;;;;;;14.85;2.00;;;;;;;;;;5029955;28;20491;-54
2022/04/08 06:46:37;;;;;;;13.80;2.60;;;;;;;;;;5029665;28;20468;-55
2022/04/08 06:49:03;;;;;;;12.93;1.90;;;;;;;;;;5047025;28;20039;-54
2022/04/08 06:51:30;;;;;;;17.35;2.78;;;;;;;;;;5034569;28;20036;-53
2022/04/08 06:53:56;;;;;;;17.48;2.70;;;;;;;;;;5047610;28;20033;-54
2022/04/08 06:56:22;;;;;;;15.65;2.97;;;;;;;;;;5047605;28;20135;-54
2022/04/08 06:58:50;;;;;;;16.45;3.00;;;;;;;;;;5047243;28;20159;-53
2022/04/08 07:01:16;;;;;;;16.95;2.60;;;;;;;;;;5048097;28;20414;-54
2022/04/08 07:03:42;;;;;;;15.52;2.42;;;;;;;;;;5047769;28;20140;-52
2022/04/08 07:06:08;;;;;;;14.07;1.88;;;;;;;;;;5042372;28;20482;-52
2022/04/08 07:08:34;;;;;;;18.33;2.25;;;;;;;;;;5038825;28;20028;-50
2022/04/08 07:11:00;;;;;;;15.88;2.38;;;;;;;;;;5048440;28;20067;-52
2022/04/08 07:13:26;;;;;;;14.30;2.70;;;;;;;;;;5047353;28;20060;-51
2022/04/08 07:15:52;;;;;;;14.52;2.13;;;;;;;;;;5047466;28;20079;-52
2022/04/08 07:18:19;;;;;;;19.98;2.80;;;;;;;;;;5047546;28;20562;-52
2022/04/08 07:20:45;;;;;;;14.85;2.30;;;;;;;;;;5045523;28;20025;-51
2022/04/08 07:23:11;;;;;;;8.77;1.60;;;;;;;;;;5047828;28;20093;-54
2022/04/08 07:25:38;;;;;;;9.05;1.73;;;;;;;;;;5047421;28;20025;-54
2022/04/08 07:28:04;;;;;;;13.20;2.00;;;;;;;;;;5047727;28;20037;-54
2022/04/08 07:30:30;;;;;;;15.57;2.28;;;;;;;;;;5045056;28;20110;-54
2022/04/08 07:32:56;;;;;;;12.48;2.35;;;;;;;;;;5040428;28;20045;-54
2022/04/08 07:35:23;;;;;;;10.35;3.00;;;;;;;;;;5042646;28;20032;-55
2022/04/08 07:37:50;;;;;;;10.40;1.85;;;;;;;;;;5039650;28;20029;-54
2022/04/08 07:40:16;;;;;;;9.80;1.58;;;;;;;;;;5040982;28;20108;-52
2022/04/08 07:42:42;;;;;;;15.75;2.15;;;;;;;;;;5041496;28;20052;-53
2022/04/08 07:45:10;;;;;;;11.95;1.90;;;;;;;;;;5043166;28;20068;-55
2022/04/08 07:47:36;;;;;;;12.88;2.33;;;;;;;;;;5040388;28;20025;-52
2022/04/08 07:50:03;;;;;;;10.38;1.88;;;;;;;;;;5041854;28;20018;-54
2022/04/08 07:52:29;;;;;;;10.43;1.77;;;;;;;;;;5040419;28;20071;-52
2022/04/08 07:54:55;;;;;;;11.45;1.55;;;;;;;;;;5045913;28;20871;-54
2022/04/08 07:57:22;;;;;;;13.35;2.22;;;;;;;;;;5041342;28;20022;-53
2022/04/08 07:59:48;;;;;;;12.15;1.30;;;;;;;;;;5044351;28;20103;-55
2022/04/08 08:02:14;;;;;;;5.07;1.40;;;;;;;;;;5040675;28;20376;-56
2022/04/08 08:04:41;;;;;;;11.63;1.67;;;;;;;;;;5041598;28;20036;-53
2022/04/08 08:07:07;;;;;;;8.70;1.83;;;;;;;;;;5042761;28;20021;-55
2022/04/08 08:09:33;;;;;;;6.80;1.75;;;;;;;;;;5041860;28;20082;-54
2022/04/08 08:12:00;;;;;;;6.85;1.52;;;;;;;;;;5039906;28;20123;-53
2022/04/08 08:14:26;;;;;;;5.82;1.42;;;;;;;;;;5040805;28;20065;-50
2022/04/08 08:16:53;;;;;;;7.53;1.10;;;;;;;;;;5042884;28;20033;-53
2022/04/08 08:19:19;;;;;;;9.98;1.42;;;;;;;;;;5033491;28;20431;-55
2022/04/08 08:21:46;;;;;;;13.43;1.83;;;;;;;;;;5047973;28;20098;-53
2022/04/08 08:24:12;;;;;;;16.23;2.75;;;;;;;;;;5034868;28;20615;-54
2022/04/08 08:26:38;;;;;;;15.60;2.35;;;;;;;;;;5045402;28;20021;-55
2022/04/08 08:29:04;;;;;;;10.93;1.85;;;;;;;;;;5044062;28;20622;-55
2022/04/08 08:31:30;;;;;;;20.15;2.22;;;;;;;;;;5042853;28;20025;-51
2022/04/08 08:33:56;;;;;;;10.02;1.80;;;;;;;;;;5042297;28;20102;-54
2022/04/08 08:36:22;;;;;;;16.05;1.83;;;;;;;;;;5046018;28;20571;-53
2022/04/08 08:38:49;;;;;;;11.23;1.83;;;;;;;;;;5048593;28;20032;-51
2022/04/08 08:41:18;;;;;;;13.48;2.00;;;;;;;;;;5049285;28;20103;-53
2022/04/08 08:43:45;;;;;;;10.88;3.53;;;;;;;;;;5045716;28;20124;-54
2022/04/08 08:46:12;;;;;;;9.55;1.90;;;;;;;;;;5038657;28;20041;-51
2022/04/08 08:48:38;;;;;;;19.73;2.40;;;;;;;;;;5049291;28;20104;-53
2022/04/08 08:51:06;;;;;;;11.48;1.90;;;;;;;;;;5049020;28;20033;-53
2022/04/08 08:53:35;;;;;;;8.95;2.30;;;;;;;;;;5048877;28;20502;-52
2022/04/08 08:56:01;;;;;;;8.73;1.35;;;;;;;;;;5049439;28;20036;-54
2022/04/08 08:58:30;;;;;;;9.82;0.90;;;;;;;;;;5048634;28;20434;-54
2022/04/08 09:00:57;;;;;;;15.35;2.35;;;;;;;;;;5049218;28;20533;-51
2022/04/08 09:03:29;;;;;;;8.82;1.35;;;;;;;;;;5043132;28;20196;-54
2022/04/08 09:05:56;;;;;;;10.27;1.67;;;;;;;;;;5038418;28;20475;-51
2022/04/08 09:08:22;;;;;;;6.65;1.80;;;;;;;;;;5040870;28;20108;-53
2022/04/08 09:10:49;;;;;;;8.93;1.77;;;;;;;;;;5049585;28;20110;-54
2022/04/08 09:13:21;;;;;;;7.72;1.42;;;;;;;;;;5048510;28;20047;-55
2022/04/08 09:15:57;;;;;;;7.65;1.73;;;;;;;;;;5048086;28;20127;-52
2022/04/08 09:18:27;;;;;;;10.25;1.55;;;;;;;;;;5045147;28;20095;-52
2022/04/08 09:20:53;;;;;;;11.18;1.70;;;;;;;;;;5049642;28;20454;-55
2022/04/08 09:23:19;;;;;;;10.70;1.73;;;;;;;;;;5043201;28;20052;-52
2022/04/08 09:25:47;;;;;;;10.73;1.33;;;;;;;;;;5046997;28;20465;-52
2022/04/08 09:28:18;;;;;;;8.00;1.70;;;;;;;;;;5041701;28;20126;-56
2022/04/08 09:30:53;;;;;;;8.18;1.65;;;;;;;;;;5048082;28;20055;-50
2022/04/08 09:33:20;;;;;;;10.32;1.80;;;;;;;;;;5042531;28;20562;-52
2022/04/08 09:35:47;;;;;;;6.90;1.40;;;;;;;;;;5049251;28;20017;-54
2022/04/08 09:38:18;;;;;;;6.15;1.35;;;;;;;;;;5048513;28;20889;-54
2022/04/08 09:40:44;;;;;;;5.88;1.25;;;;;;;;;;5047583;28;20120;-55
2022/04/08 09:43:10;;;;;;;11.10;1.50;;;;;;;;;;5048324;28;20163;-51
2022/04/08 09:45:38;;;;;;;8.77;2.13;;;;;;;;;;5043234;28;20029;-55
2022/04/08 09:48:05;;;;;;;6.75;1.48;;;;;;;;;;5049049;28;20052;-54
2022/04/08 09:50:31;;;;;;;5.60;1.50;;;;;;;;;;5037216;28;20043;-54
2022/04/08 09:52:57;;;;;;;11.57;1.88;;;;;;;;;;5048430;28;20048;-52
2022/04/08 09:55:25;;;;;;;4.60;1.13;;;;;;;;;;5048379;28;20040;-52
2022/04/08 09:58:12;;;;;;;6.15;1.45;;;;;;;;;;5048599;28;20029;-52
2022/04/08 10:00:38;;;;;;;7.47;1.65;;;;;;;;;;5045695;28;20123;-53
2022/04/08 10:03:04;;;;;;;9.20;1.92;;;;;;;;;;5048675;28;20033;-55
2022/04/08 10:05:31;;;;;;;7.03;1.40;;;;;;;;;;5048045;28;20795;-52
2022/04/08 10:07:57;;;;;;;6.85;1.17;;;;;;;;;;5048444;28;20029;-55
2022/04/08 10:10:45;;;;;;;6.20;1.70;;;;;;;;;;5047274;28;20048;-52
2022/04/08 10:13:25;;;;;;;8.48;1.98;;;;;;;;;;5042327;28;20049;-53
2022/04/08 10:16:01;;;;;;;7.38;1.58;;;;;;;;;;5038856;28;20033;-55
2022/04/08 10:18:37;;;;;;;6.20;1.55;;;;;;;;;;5039089;28;20103;-52
2022/04/08 10:21:03;;;;;;;6.00;1.50;;;;;;;;;;5038952;28;20513;-53
2022/04/08 10:23:40;;;;;;;8.43;1.95;;;;;;;;;;5035570;28;20099;-53
2022/04/08 10:26:16;;;;;;;8.10;1.38;;;;;;;;;;5042633;28;20031;-53
2022/04/08 10:28:42;;;;;;;10.75;1.52;;;;;;;;;;5035132;28;20072;-53
2022/04/08 10:31:19;;;;;;;4.35;1.38;;;;;;;;;;5047695;28;20390;-52
2022/04/08 10:33:49;;;;;;;7.75;1.90;;;;;;;;;;5066901;28;20059;-52
2022/04/08 10:36:15;;;;;;;5.40;1.40;;;;;;;;;;5047799;28;20040;-54
2022/04/08 10:38:41;;;;;;;11.32;1.58;;;;;;;;;;5047431;28;20324;-52
2022/04/08 10:41:10;;;;;;;10.93;2.13;;;;;;;;;;5047061;28;20505;-53
2022/04/08 10:43:49;;;;;;;6.45;1.85;;;;;;;;;;5045463;28;20075;-52
2022/04/08 10:46:32;;;;;;;9.68;2.05;;;;;;;;;;5047574;28;20430;-55
2022/04/08 10:48:58;;;;;;;13.02;1.63;;;;;;;;;;5027353;28;20041;-54
2022/04/08 10:51:24;;;;;;;8.75;2.05;;;;;;;;;;5042593;28;20021;-52
2022/04/08 10:53:51;;;;;;;9.70;2.38;;;;;;;;;;5047403;28;20040;-54
2022/04/08 10:56:17;;;;;;;9.65;1.40;;;;;;;;;;5047404;28;20490;-51
2022/04/08 10:58:45;;;;;;;9.70;1.45;;;;;;;;;;5035786;28;20037;-50
2022/04/08 11:01:15;;;;;;;8.70;1.98;;;;;;;;;;5038767;28;20033;-54
2022/04/08 11:03:46;;;;;;;9.45;1.90;;;;;;;;;;5047407;28;20040;-50
2022/04/08 11:06:12;;;;;;;;;;;;;;;;;;5047968;28;20108;-54
2022/04/08 11:08:38;;;;;;;5.97;1.55;;;;;;;;;;5047621;28;19913;-54
2022/04/08 11:11:04;;;;;;;7.68;1.70;;;;;;;;;;5045493;28;20035;-57
2022/04/08 11:13:30;;;;;;;7.88;1.60;;;;;;;;;;5037658;28;20696;-51
2022/04/08 11:15:56;;;;;;;7.97;1.60;;;;;;;;;;5047268;28;20069;-50
2022/04/08 11:18:25;;;;;;;9.55;2.08;;;;;;;;;;5046327;28;20024;-54
2022/04/08 11:20:51;;;;;;;9.30;2.38;;;;;;;;;;5035193;28;20036;-52
2022/04/08 11:23:27;;;;;;;7.72;1.70;;;;;;;;;;5051136;28;20140;-53
2022/04/08 11:25:53;;;;;;;8.77;2.15;;;;;;;;;;5050666;28;20461;-55
2022/04/08 11:28:21;;;;;;;11.90;1.80;;;;;;;;;;5050583;28;20021;-52
2022/04/08 11:30:54;;;;;;;13.65;2.47;;;;;;;;;;5049752;28;20049;-54
2022/04/08 11:33:20;;;;;;;5.05;1.25;;;;;;;;;;5049075;28;20032;-53
2022/04/08 11:35:47;;;;;;;8.98;1.67;;;;;;;;;;5033409;28;20048;-53
2022/04/08 11:38:13;;;;;;;7.60;1.20;;;;;;;;;;5047593;28;20763;-54
2022/04/08 11:40:39;;;;;;;4.80;1.42;;;;;;;;;;5050455;28;20523;-56
2022/04/08 11:43:05;;;;;;;10.20;1.70;;;;;;;;;;5050045;28;20029;-55
2022/04/08 11:45:31;;;;;;;9.27;1.88;;;;;;;;;;5050870;28;20029;-54
2022/04/08 11:47:57;;;;;;;5.80;1.38;;;;;;;;;;5044774;28;20491;-52
2022/04/08 11:50:27;;;;;;;6.68;1.52;;;;;;;;;;5047190;28;20047;-54
2022/04/08 11:52:54;;;;;;;11.47;2.33;;;;;;;;;;5050560;28;20691;-53
2022/04/08 11:55:23;;;;;;;5.65;1.40;;;;;;;;;;5051155;28;20108;-52
2022/04/08 11:57:49;;;;;;;9.80;2.20;;;;;;;;;;5051069;28;20044;-55
2022/04/08 12:00:15;;;;;;;7.82;1.25;;;;;;;;;;5050697;28;20166;-54
2022/04/08 12:02:41;;;;;;;6.90;1.63;;;;;;;;;;5049606;28;20040;-55
2022/04/08 12:05:08;;;;;;;5.05;1.40;;;;;;;;;;5046587;28;20112;-52
2022/04/08 12:07:34;;;;;;;9.35;1.77;;;;;;;;;;5050530;28;20055;-55
2022/04/08 12:10:01;;;;;;;5.75;1.35;;;;;;;;;;5031728;28;20321;-53
2022/04/08 12:12:30;;;;;;;10.80;1.50;;;;;;;;;;5031763;28;20029;-52
2022/04/08 12:15:06;;;;;;;6.53;1.52;;;;;;;;;;5046938;28;20498;-54
2022/04/08 12:17:39;;;;;;;4.30;1.30;;;;;;;;;;5032853;28;20034;-54
2022/04/08 12:20:12;;;;;;;6.03;1.42;;;;;;;;;;5034464;28;20638;-56
2022/04/08 12:22:39;;;;;;;7.10;1.55;;;;;;;;;;5032385;28;20060;-54
2022/04/08 12:25:06;;;;;;;7.97;1.85;;;;;;;;;;5033646;28;20068;-53
2022/04/08 12:27:32;;;;;;;5.28;1.13;;;;;;;;;;5038458;28;20515;-53
2022/04/08 12:29:59;;;;;;;6.55;1.80;;;;;;;;;;5032271;28;20104;-51
2022/04/08 12:32:33;;;;;;;4.18;1.55;;;;;;;;;;5036553;28;20491;-54
2022/04/08 12:34:59;;;;;;;2.63;1.15;;;;;;;;;;5035898;28;20120;-50
2022/04/08 12:37:25;;;;;;;7.45;1.58;;;;;;;;;;5036894;28;20037;-53
2022/04/08 12:39:51;;;;;;;6.05;1.73;;;;;;;;;;5030796;28;20699;-51
2022/04/08 12:42:17;;;;;;;7.22;1.50;;;;;;;;;;5038481;28;20536;-54
2022/04/08 12:44:44;;;;;;;6.03;1.50;;;;;;;;;;5032476;28;20036;-55
2022/04/08 12:47:11;;;;;;;7.82;1.75;;;;;;;;;;5034233;28;20523;-51
2022/04/08 12:49:37;;;;;;;6.35;1.27;;;;;;;;;;5033714;28;20033;-54
2022/04/08 12:52:03;;;;;;;10.10;2.20;;;;;;;;;;5030209;28;20062;-55
2022/04/08 12:54:29;;;;;;;5.60;1.77;;;;;;;;;;5031032;28;20128;-52
2022/04/08 12:56:55;;;;;;;8.93;1.58;;;;;;;;;;5032112;28;20532;-53
2022/04/08 12:59:21;;;;;;;6.40;1.23;;;;;;;;;;5034195;28;20048;-55
2022/04/08 13:01:47;;;;;;;5.03;1.55;;;;;;;;;;5032950;28;20053;-53
2022/04/08 13:04:13;;;;;;;8.88;1.63;;;;;;;;;;5037385;28;20153;-55
2022/04/08 13:06:40;;;;;;;13.98;1.48;;;;;;;;;;5038421;28;20067;-55
2022/04/08 13:09:07;;;;;;;10.07;1.48;;;;;;;;;;5032816;28;20037;-54
2022/04/08 13:11:34;;;;;;;7.65;1.38;;;;;;;;;;5035567;28;20086;-54
2022/04/08 13:14:00;;;;;;;7.13;1.38;;;;;;;;;;5035384;28;20029;-54
2022/04/08 13:16:26;;;;;;;6.50;1.60;;;;;;;;;;5032868;28;20029;-54
2022/04/08 13:18:52;;;;;;;11.75;1.42;;;;;;;;;;5034785;28;20087;-53
2022/04/08 13:21:18;;;;;;;5.72;1.60;;;;;;;;;;5034093;28;20476;-54
2022/04/08 13:23:45;;;;;;;6.95;1.55;;;;;;;;;;5038719;28;20029;-55
2022/04/08 13:26:11;;;;;;;9.23;1.65;;;;;;;;;;5036770;28;20133;-54
2022/04/08 13:28:37;;;;;;;5.28;1.23;;;;;;;;;;5037121;28;20112;-51
2022/04/08 13:31:03;;;;;;;7.97;1.70;;;;;;;;;;5033547;28;20132;-55
2022/04/08 13:33:29;;;;;;;8.30;1.70;;;;;;;;;;5036946;28;20510;-52
2022/04/08 13:35:57;;;;;;;5.80;1.33;;;;;;;;;;5033868;28;20543;-52
2022/04/08 13:38:25;;;;;;;8.27;1.27;;;;;;;;;;5034833;28;20065;-54
2022/04/08 13:40:52;;;;;;;7.95;1.75;;;;;;;;;;5032737;28;20033;-54
2022/04/08 13:43:18;;;;;;;5.90;1.23;;;;;;;;;;5032945;28;20032;-54
2022/04/08 13:45:44;;;;;;;5.57;1.38;;;;;;;;;;5035821;28;20101;-55
2022/04/08 13:48:10;;;;;;;9.40;1.70;;;;;;;;;;5032898;28;20033;-54
2022/04/08 13:50:36;;;;;;;5.85;1.27;;;;;;;;;;5032257;28;20033;-52
2022/04/08 13:53:02;;;;;;;4.70;1.40;;;;;;;;;;5030978;28;20406;-55
2022/04/08 13:55:28;;;;;;;5.40;1.20;;;;;;;;;;5032316;28;20108;-55
2022/04/08 13:57:54;;;;;;;4.78;0.90;;;;;;;;;;5031360;28;20556;-55
2022/04/08 14:00:20;;;;;;;9.18;1.40;;;;;;;;;;5033556;28;20127;-56
2022/04/08 14:02:46;;;;;;;7.18;1.42;;;;;;;;;;5034035;28;20131;-54
2022/04/08 14:05:13;;;;;;;4.20;0.95;;;;;;;;;;5033121;28;20032;-53
2022/04/08 14:07:39;;;;;;;4.00;1.30;;;;;;;;;;5032769;28;20100;-55
2022/04/08 14:10:06;;;;;;;6.15;1.25;;;;;;;;;;5032356;28;20042;-55
2022/04/08 14:12:32;;;;;;;7.93;1.20;;;;;;;;;;5031668;28;20040;-52
2022/04/08 14:14:59;;;;;;;7.82;1.80;;;;;;;;;;5031263;28;20053;-52
2022/04/08 14:17:25;;;;;;;3.72;1.42;;;;;;;;;;5035036;28;20036;-54
2022/04/08 14:19:51;;;;;;;7.70;1.30;;;;;;;;;;5034637;28;20033;-54
2022/04/08 14:22:17;;;;;;;9.57;1.10;;;;;;;;;;5034776;28;20778;-54
2022/04/08 14:24:43;;;;;;;6.32;1.38;;;;;;;;;;5031590;28;20033;-53
2022/04/08 14:27:09;;;;;;;5.85;1.15;;;;;;;;;;5033486;28;20037;-53
2022/04/08 14:29:36;;;;;;;9.07;1.42;;;;;;;;;;5033051;28;20511;-54
2022/04/08 14:32:02;;;;;;;7.13;1.42;;;;;;;;;;5034191;28;20059;-52
2022/04/08 14:34:28;;;;;;;10.10;1.30;;;;;;;;;;5034961;28;20051;-55
2022/04/08 14:36:54;;;;;;;8.90;1.85;;;;;;;;;;5032857;28;20499;-55